createdAt,value
2018-05-08T00:01:56.385Z,76.60
2018-05-08T00:04:22.586Z,76.60
2018-05-08T00:06:49.499Z,77.00
2018-05-08T00:09:15.714Z,77.00
2018-05-08T00:11:41.894Z,76.90
2018-05-08T00:14:08.767Z,77.40
2018-05-08T00:16:34.934Z,77.30
2018-05-08T00:19:01.108Z,77.30
2018-05-08T00:21:27.299Z,77.40
2018-05-08T00:23:53.426Z,77.20
2018-05-08T00:26:19.583Z,78.40
2018-05-08T00:28:45.737Z,78.40
2018-05-08T00:31:11.900Z,77.80
2018-05-08T00:33:38.011Z,77.90
2018-05-08T00:36:04.164Z,78.50
2018-05-08T00:38:31.068Z,78.40
2018-05-08T00:40:57.214Z,78.30
2018-05-08T00:43:23.376Z,78.80
2018-05-08T00:45:49.581Z,78.60
2018-05-08T00:48:16.466Z,79.80
2018-05-08T00:50:42.647Z,79.10
2018-05-08T00:53:08.845Z,80.00
2018-05-08T00:55:35.061Z,79.40
2018-05-08T00:58:01.298Z,79.60
2018-05-08T01:00:27.469Z,80.00
2018-05-08T01:02:54.399Z,80.30
2018-05-08T01:05:20.510Z,81.00
2018-05-08T01:07:46.798Z,80.50
2018-05-08T01:10:12.963Z,80.40
2018-05-08T01:12:39.134Z,80.80
2018-05-08T01:15:06.079Z,81.40
2018-05-08T01:17:33.001Z,81.20
2018-05-08T01:19:59.164Z,81.00
2018-05-08T01:22:25.329Z,80.80
2018-05-08T01:24:51.491Z,81.60
2018-05-08T01:27:17.673Z,81.40
2018-05-08T01:29:43.826Z,81.80
2018-05-08T01:32:10.004Z,81.70
2018-05-08T01:34:36.160Z,82.30
2018-05-08T01:37:02.359Z,82.80
2018-05-08T01:39:28.525Z,82.00
2018-05-08T01:41:54.757Z,82.80
2018-05-08T01:44:20.997Z,83.30
2018-05-08T01:46:47.175Z,83.40
2018-05-08T01:49:13.376Z,83.40
2018-05-08T01:51:40.303Z,84.80
2018-05-08T01:54:06.590Z,84.80
2018-05-08T01:56:32.797Z,84.30
2018-05-08T01:58:58.998Z,85.00
2018-05-08T02:01:25.967Z,84.30
2018-05-08T02:03:52.164Z,84.30
2018-05-08T02:06:18.339Z,84.30
2018-05-08T02:08:44.581Z,84.50
2018-05-08T02:11:10.833Z,84.90
2018-05-08T02:13:37.066Z,85.10
2018-05-08T02:16:03.234Z,85.10
2018-05-08T02:18:29.454Z,85.00
2018-05-08T02:20:56.398Z,85.30
2018-05-08T02:23:23.272Z,85.30
2018-05-08T02:25:49.537Z,85.10
2018-05-08T02:28:15.715Z,85.30
2018-05-08T02:30:48.988Z,85.70
2018-05-08T02:33:15.939Z,85.70
2018-05-08T02:35:42.097Z,85.60
2018-05-08T02:38:08.335Z,85.70
2018-05-08T02:40:34.484Z,86.10
2018-05-08T02:43:00.592Z,86.30
2018-05-08T02:45:26.993Z,86.70
2018-05-08T02:47:53.199Z,87.00
2018-05-08T02:50:20.178Z,87.70
2018-05-08T02:52:46.394Z,87.60
2018-05-08T02:55:12.663Z,87.90
2018-05-08T02:57:38.853Z,88.00
2018-05-08T03:00:05.134Z,88.60
2018-05-08T03:02:31.302Z,88.50
2018-05-08T03:04:57.458Z,88.90
2018-05-08T03:07:23.633Z,89.30
2018-05-08T03:09:50.570Z,90.10
2018-05-08T03:12:16.786Z,89.90
2018-05-08T03:14:42.961Z,90.20
2018-05-08T03:17:09.200Z,90.10
2018-05-08T03:19:35.433Z,90.10
2018-05-08T03:22:01.628Z,90.50
2018-05-08T03:24:28.509Z,91.00
2018-05-08T03:26:54.715Z,91.00
2018-05-08T03:29:20.948Z,91.10
2018-05-08T03:31:47.149Z,91.60
2018-05-08T03:34:14.048Z,92.00
2018-05-08T03:36:40.273Z,92.00
2018-05-08T03:39:06.488Z,92.50
2018-05-08T03:41:32.665Z,92.50
2018-05-08T03:44:00.430Z,92.70
2018-05-08T03:46:27.384Z,92.80
2018-05-08T03:48:54.349Z,93.30
2018-05-08T03:51:20.534Z,92.90
2018-05-08T03:53:46.753Z,93.00
2018-05-08T03:56:12.970Z,93.00
2018-05-08T03:58:39.241Z,93.00
2018-05-08T04:04:33.202Z,93.30
2018-05-08T04:07:11.678Z,93.40
2018-05-08T04:09:37.955Z,93.40
2018-05-08T04:12:04.107Z,93.70
2018-05-08T04:14:31.032Z,94.10
2018-05-08T04:17:19.138Z,94.00
2018-05-08T04:19:45.379Z,94.20
2018-05-08T04:22:11.601Z,94.50
2018-05-08T04:24:37.838Z,94.30
2018-05-08T04:27:04.329Z,94.30
2018-05-08T04:29:31.275Z,94.60
2018-05-08T04:31:59.662Z,95.50
2018-05-08T04:34:25.892Z,95.50
2018-05-08T04:36:52.130Z,95.30
2018-05-08T04:39:18.283Z,96.10
2018-05-08T04:41:44.553Z,96.00
2018-05-08T04:44:17.679Z,96.50
2018-05-08T04:46:43.848Z,96.50
2018-05-08T04:49:10.030Z,96.50
2018-05-08T04:51:36.288Z,96.70
2018-05-08T04:54:02.482Z,97.30
2018-05-08T04:56:28.663Z,97.60
2018-05-08T04:58:54.851Z,97.50
2018-05-08T05:01:21.035Z,97.10
2018-05-08T05:03:48.078Z,97.70
2018-05-08T05:06:15.059Z,97.60
2018-05-08T05:08:41.254Z,97.50
2018-05-08T05:11:08.207Z,98.20
2018-05-08T05:13:35.137Z,99.20
2018-05-08T05:16:01.277Z,99.20
2018-05-08T05:18:28.213Z,99.90
2018-05-08T05:20:54.379Z,99.90
2018-05-08T05:23:20.631Z,99.50
2018-05-08T05:25:46.866Z,97.90
2018-05-08T05:28:13.084Z,98.60
2018-05-08T05:30:39.240Z,98.40
2018-05-08T05:33:05.485Z,98.60
2018-05-08T05:35:32.518Z,98.70
2018-05-08T05:37:58.690Z,98.60
2018-05-08T05:40:24.953Z,97.70
2018-05-08T05:42:51.203Z,96.90
2018-05-08T05:45:17.391Z,96.90
2018-05-08T05:47:43.524Z,96.50
2018-05-08T05:50:09.708Z,96.80
2018-05-08T05:52:36.646Z,97.40
2018-05-08T05:55:03.592Z,96.50
2018-05-08T05:57:30.823Z,96.00
2018-05-08T05:59:57.076Z,96.00
2018-05-08T06:02:23.937Z,95.80
2018-05-08T06:04:50.191Z,95.80
2018-05-08T06:07:16.323Z,96.70
2018-05-08T06:09:42.553Z,96.00
2018-05-08T06:12:09.091Z,95.90
2018-05-08T06:14:36.112Z,96.30
2018-05-08T06:17:02.388Z,96.30
2018-05-08T06:19:28.573Z,95.00
2018-05-08T06:21:54.723Z,95.20
2018-05-08T06:24:20.888Z,94.40
2018-05-08T06:26:47.121Z,94.20
2018-05-08T06:29:14.019Z,94.40
2018-05-08T06:31:40.245Z,94.40
2018-05-08T06:34:06.538Z,94.10
2018-05-08T06:36:32.678Z,94.60
2018-05-08T06:38:58.925Z,94.60
2018-05-08T06:41:25.137Z,93.70
2018-05-08T06:43:51.373Z,93.70
2018-05-08T06:46:17.576Z,94.20
2018-05-08T06:48:44.465Z,93.40
2018-05-08T06:51:10.612Z,93.40
2018-05-08T06:53:36.850Z,93.70
2018-05-08T06:56:03.102Z,93.50
2018-05-08T06:58:30.574Z,93.30
2018-05-08T07:00:56.752Z,93.20
2018-05-08T07:03:22.956Z,92.90
2018-05-08T07:05:49.172Z,93.00
2018-05-08T07:08:15.310Z,92.20
2018-05-08T07:10:41.506Z,92.10
2018-05-08T07:13:07.761Z,91.50
2018-05-08T07:15:33.990Z,91.80
2018-05-08T07:18:00.204Z,90.90
2018-05-08T07:20:26.477Z,91.50
2018-05-08T07:22:52.665Z,91.20
2018-05-08T07:25:18.904Z,90.90
2018-05-08T07:27:45.077Z,91.10
2018-05-08T07:30:11.991Z,91.10
2018-05-08T07:32:38.285Z,91.10
2018-05-08T07:35:04.536Z,90.60
2018-05-08T07:37:30.765Z,90.80
2018-05-08T07:39:56.960Z,90.20
2018-05-08T07:42:23.154Z,89.60
2018-05-08T07:44:50.153Z,90.10
2018-05-08T07:47:16.328Z,90.10
2018-05-08T07:49:42.529Z,88.50
2018-05-08T07:52:08.750Z,88.10
2018-05-08T07:54:34.917Z,88.40
2018-05-08T07:57:01.083Z,88.30
2018-05-08T07:59:27.271Z,87.20
2018-05-08T08:01:53.459Z,87.20
2018-05-08T08:04:19.710Z,87.80
2018-05-08T08:06:45.859Z,86.20
2018-05-08T08:09:12.795Z,89.10
2018-05-08T08:11:38.977Z,89.00
2018-05-08T08:14:05.149Z,87.10
2018-05-08T08:16:31.385Z,86.50
2018-05-08T08:18:58.328Z,85.20
2018-05-08T08:21:25.326Z,84.80
2018-05-08T08:23:51.585Z,84.80
2018-05-08T08:26:18.469Z,84.30
2018-05-08T08:28:44.622Z,84.20
2018-05-08T08:31:10.886Z,80.30
2018-05-08T08:33:37.064Z,80.90
2018-05-08T08:36:03.252Z,79.50
2018-05-08T08:38:29.491Z,79.70
2018-05-08T08:40:56.529Z,74.90
2018-05-08T08:43:22.683Z,74.80
2018-05-08T08:45:49.623Z,75.10
2018-05-08T08:48:16.547Z,75.70
2018-05-08T08:50:42.728Z,75.50
2018-05-08T08:53:08.976Z,73.60
2018-05-08T08:55:35.139Z,75.00
2018-05-08T08:58:02.051Z,74.50
2018-05-08T09:00:28.209Z,74.40
2018-05-08T09:02:55.143Z,75.00
2018-05-08T09:05:21.386Z,75.00
2018-05-08T09:07:48.328Z,73.40
2018-05-08T09:10:15.268Z,72.90
2018-05-08T09:12:42.179Z,72.50
2018-05-08T09:15:08.332Z,72.50
2018-05-08T09:17:34.574Z,70.40
2018-05-08T09:20:01.539Z,69.90
2018-05-08T09:22:27.769Z,69.90
2018-05-08T09:24:53.934Z,70.80
2018-05-08T09:27:20.182Z,69.60
2018-05-08T09:29:46.302Z,69.40
2018-05-08T09:32:12.443Z,72.90
2018-05-08T09:34:38.608Z,72.20
2018-05-08T09:37:04.783Z,69.60
2018-05-08T09:39:30.987Z,71.30
2018-05-08T09:41:57.181Z,70.50
2018-05-08T09:44:23.321Z,71.10
2018-05-08T09:46:49.505Z,70.70
2018-05-08T09:49:15.684Z,69.90
2018-05-08T09:51:41.801Z,70.80
2018-05-08T09:54:08.048Z,70.20
2018-05-08T09:56:34.936Z,71.20
2018-05-08T09:59:01.914Z,71.60
2018-05-08T10:01:28.146Z,71.50
2018-05-08T10:03:54.383Z,74.00
2018-05-08T10:06:20.547Z,71.50
2018-05-08T10:08:46.710Z,70.50
2018-05-08T10:11:13.652Z,73.40
2018-05-08T10:13:40.556Z,70.80
2018-05-08T10:16:06.706Z,70.80
2018-05-08T10:18:32.894Z,71.50
2018-05-08T10:20:59.072Z,72.30
2018-05-08T10:23:26.022Z,72.50
2018-05-08T10:25:53.012Z,72.10
2018-05-08T10:28:19.183Z,71.90
2018-05-08T10:30:46.114Z,73.10
2018-05-08T10:33:12.244Z,72.10
2018-05-08T10:35:38.419Z,72.60
2018-05-08T10:38:04.659Z,71.70
2018-05-08T10:40:30.820Z,72.80
2018-05-08T10:42:56.987Z,71.90
2018-05-08T10:45:23.151Z,71.60
2018-05-08T10:47:49.413Z,72.40
2018-05-08T10:50:15.616Z,72.10
2018-05-08T10:52:41.817Z,73.30
2018-05-08T10:55:08.056Z,72.50
2018-05-08T10:57:34.279Z,76.00
2018-05-08T11:00:00.465Z,75.80
2018-05-08T11:02:27.445Z,71.90
2018-05-08T11:04:53.643Z,71.90
2018-05-08T11:07:20.583Z,73.40
2018-05-08T11:09:47.557Z,72.40
2018-05-08T11:12:13.856Z,72.30
2018-05-08T11:14:40.832Z,71.50
2018-05-08T11:17:07.067Z,71.60
2018-05-08T11:19:33.275Z,72.70
2018-05-08T11:21:59.501Z,73.90
2018-05-08T11:24:25.746Z,72.00
2018-05-08T11:26:52.067Z,71.60
2018-05-08T11:29:18.205Z,71.90
2018-05-08T11:31:44.467Z,71.40
2018-05-08T11:34:10.695Z,69.30
2018-05-08T11:36:36.938Z,71.10
2018-05-08T11:39:03.772Z,69.60
2018-05-08T11:41:29.918Z,73.30
2018-05-08T11:43:56.073Z,70.00
2018-05-08T11:46:23.033Z,69.90
2018-05-08T11:48:49.259Z,69.80
2018-05-08T11:51:15.469Z,69.60
2018-05-08T11:53:42.393Z,72.30
2018-05-08T11:56:09.413Z,70.20
2018-05-08T11:58:35.597Z,70.00
2018-05-08T12:01:01.911Z,70.80
2018-05-08T12:03:28.019Z,70.40
2018-05-08T12:05:54.250Z,67.90
2018-05-08T12:08:21.217Z,69.70
2018-05-08T12:10:48.149Z,69.90
2018-05-08T12:13:15.052Z,68.00
2018-05-08T12:15:41.242Z,68.20
2018-05-08T12:18:07.417Z,68.30
2018-05-08T12:20:33.654Z,69.00
2018-05-08T12:22:59.817Z,70.10
2018-05-08T12:25:26.065Z,69.40
2018-05-08T12:27:52.308Z,69.50
2018-05-08T12:30:18.487Z,69.40
2018-05-08T12:32:45.410Z,69.50
2018-05-08T12:35:11.585Z,69.50
2018-05-08T12:37:37.746Z,70.10
2018-05-08T12:40:04.015Z,70.30
2018-05-08T12:42:30.991Z,66.90
2018-05-08T12:44:57.185Z,66.10
2018-05-08T12:47:24.181Z,66.50
2018-05-08T12:49:50.383Z,66.40
2018-05-08T12:52:17.304Z,67.30
2018-05-08T12:54:44.242Z,66.50
2018-05-08T12:57:10.434Z,66.40
2018-05-08T12:59:36.699Z,66.50
2018-05-08T13:02:03.617Z,67.70
2018-05-08T13:04:29.812Z,67.60
2018-05-08T13:06:55.987Z,68.00
2018-05-08T13:09:22.214Z,66.40
2018-05-08T13:11:48.473Z,65.50
2018-05-08T13:14:15.454Z,65.30
2018-05-08T13:16:41.677Z,65.20
2018-05-08T13:19:07.871Z,64.70
2018-05-08T13:21:34.813Z,63.50
2018-05-08T13:24:01.728Z,61.30
2018-05-08T13:26:27.901Z,61.10
2018-05-08T13:28:54.802Z,61.00
2018-05-08T13:31:21.018Z,60.90
2018-05-08T13:33:47.289Z,62.10
2018-05-08T13:36:14.306Z,61.10
2018-05-08T13:38:40.478Z,61.10
2018-05-08T13:41:07.441Z,61.20
2018-05-08T13:43:33.640Z,61.20
2018-05-08T13:46:00.604Z,61.20
2018-05-08T13:48:26.827Z,61.20
2018-05-08T13:50:52.997Z,60.60
2018-05-08T13:53:19.199Z,61.50
2018-05-08T13:55:45.334Z,60.70
2018-05-08T13:58:11.551Z,59.40
2018-05-08T14:00:37.806Z,60.00
2018-05-08T14:03:04.038Z,59.60
2018-05-08T14:05:30.243Z,60.50
2018-05-08T14:07:56.417Z,59.30
2018-05-08T14:10:23.350Z,62.80
2018-05-08T14:12:49.589Z,62.60
2018-05-08T14:15:16.468Z,59.50
2018-05-08T14:17:42.644Z,60.20
2018-05-08T14:20:08.853Z,61.30
2018-05-08T14:22:35.124Z,60.90
2018-05-08T14:25:02.117Z,60.30
2018-05-08T14:27:28.684Z,60.20
2018-05-08T14:29:54.841Z,59.20
2018-05-08T14:32:21.790Z,59.40
2018-05-08T14:34:48.810Z,58.90
2018-05-08T14:37:15.023Z,59.00
2018-05-08T14:39:43.361Z,59.50
2018-05-08T14:42:09.634Z,60.00
2018-05-08T14:44:35.849Z,61.40
2018-05-08T14:47:02.039Z,61.20
2018-05-08T14:49:29.095Z,59.90
2018-05-08T14:51:55.295Z,59.90
2018-05-08T14:54:22.207Z,61.20
2018-05-08T14:56:48.497Z,61.00
2018-05-08T14:59:14.752Z,60.00
2018-05-08T15:01:40.966Z,61.30
2018-05-08T15:04:07.217Z,61.70
2018-05-08T15:06:33.462Z,63.20
2018-05-08T15:08:59.714Z,62.60
2018-05-08T15:11:26.617Z,62.00
2018-05-08T15:13:52.905Z,62.70
2018-05-08T15:16:19.097Z,62.90
2018-05-08T15:18:45.345Z,62.60
2018-05-08T15:21:12.330Z,62.70
2018-05-08T15:23:38.575Z,62.60
2018-05-08T15:26:04.849Z,63.50
2018-05-08T15:28:31.821Z,62.70
2018-05-08T15:30:58.022Z,62.70
2018-05-08T15:33:24.961Z,62.80
2018-05-08T15:35:51.908Z,62.60
2018-05-08T15:38:18.886Z,63.10
2018-05-08T15:40:45.054Z,62.10
2018-05-08T15:43:11.227Z,61.70
2018-05-08T15:45:38.192Z,61.60
2018-05-08T15:48:04.415Z,61.60
2018-05-08T15:50:30.602Z,61.60
2018-05-08T15:52:57.024Z,61.60
2018-05-08T15:55:23.237Z,60.70
2018-05-08T15:57:49.437Z,60.20
2018-05-08T16:00:15.603Z,61.20
2018-05-08T16:02:41.788Z,60.00
2018-05-08T16:05:07.992Z,60.40
2018-05-08T16:07:34.861Z,60.30
2018-05-08T16:10:01.155Z,60.30
2018-05-08T16:12:28.136Z,60.10
2018-05-08T16:14:54.304Z,60.00
2018-05-08T16:17:20.480Z,60.50
2018-05-08T16:19:46.686Z,60.30
2018-05-08T16:22:13.569Z,59.30
2018-05-08T16:24:39.804Z,59.20
2018-05-08T16:27:06.008Z,59.20
2018-05-08T16:29:32.981Z,59.30
2018-05-08T16:31:59.143Z,59.30
2018-05-08T16:34:25.317Z,59.70
2018-05-08T16:36:51.528Z,60.00
2018-05-08T16:39:18.842Z,61.20
2018-05-08T16:41:45.059Z,61.10
2018-05-08T16:44:11.406Z,61.70
2018-05-08T16:46:37.594Z,61.60
2018-05-08T16:49:03.837Z,62.50
2018-05-08T16:51:30.085Z,62.30
2018-05-08T16:53:56.336Z,61.90
2018-05-08T16:56:22.506Z,62.40
2018-05-08T16:58:48.677Z,62.50
2018-05-08T17:01:14.840Z,62.90
2018-05-08T17:03:42.017Z,63.60
2018-05-08T17:06:08.240Z,63.20
2018-05-08T17:08:35.217Z,64.50
2018-05-08T17:11:01.476Z,64.50
2018-05-08T17:13:28.451Z,64.30
2018-05-08T17:15:54.671Z,64.20
2018-05-08T17:18:20.837Z,64.30
2018-05-08T17:20:46.954Z,64.20
2018-05-08T17:23:13.814Z,64.30
2018-05-08T17:25:40.089Z,64.60
2018-05-08T17:28:06.254Z,64.20
2018-05-08T17:30:32.456Z,64.90
2018-05-08T17:32:58.683Z,64.60
2018-05-08T17:35:24.856Z,65.20
2018-05-08T17:37:51.022Z,65.00
2018-05-08T17:40:18.028Z,67.90
2018-05-08T17:42:44.257Z,68.00
2018-05-08T17:45:10.423Z,69.10
2018-05-08T17:47:36.722Z,67.60
2018-05-08T17:50:02.994Z,67.80
2018-05-08T17:52:29.212Z,66.90
2018-05-08T17:54:56.146Z,67.60
2018-05-08T17:57:23.183Z,68.40
2018-05-08T17:59:49.310Z,68.30
2018-05-08T18:02:15.485Z,68.00
2018-05-08T18:04:41.608Z,69.20
2018-05-08T18:07:07.837Z,68.30
2018-05-08T18:09:33.997Z,69.10
2018-05-08T18:12:00.235Z,68.90
2018-05-08T18:14:26.456Z,69.40
2018-05-08T18:16:52.680Z,71.70
2018-05-08T18:19:18.892Z,69.70
2018-05-08T18:21:45.106Z,70.30
2018-05-08T18:24:11.325Z,70.30
2018-05-08T18:26:37.622Z,71.90
2018-05-08T18:29:03.727Z,71.90
2018-05-08T18:31:29.868Z,71.40
2018-05-08T18:33:56.090Z,73.00
2018-05-08T18:36:22.287Z,72.60
2018-05-08T18:38:48.484Z,73.30
2018-05-08T18:41:14.672Z,74.00
2018-05-08T18:43:40.965Z,74.50
2018-05-08T18:46:07.178Z,74.50
2018-05-08T18:48:33.386Z,74.30
2018-05-08T18:51:00.326Z,75.20
2018-05-08T18:53:27.243Z,75.20
2018-05-08T18:55:53.392Z,75.00
2018-05-08T18:58:20.261Z,75.40
2018-05-08T19:00:52.590Z,75.30
2018-05-08T19:03:18.730Z,75.50
2018-05-08T19:05:45.702Z,75.90
2018-05-08T19:08:11.854Z,75.80
2018-05-08T19:10:38.078Z,75.90
2018-05-08T19:13:04.328Z,76.50
2018-05-08T19:15:36.559Z,76.70
2018-05-08T19:18:02.821Z,77.20
2018-05-08T19:20:29.072Z,77.80
2018-05-08T19:22:55.321Z,78.20
2018-05-08T19:25:22.206Z,78.70
2018-05-08T19:27:48.411Z,78.70
2018-05-08T19:30:20.834Z,79.30
2018-05-08T19:32:47.026Z,79.00
2018-05-08T19:35:19.323Z,79.50
2018-05-08T19:37:51.711Z,79.90
2018-05-08T19:40:17.926Z,80.80
2018-05-08T19:42:44.110Z,79.00
2018-05-08T19:45:10.279Z,78.70
2018-05-08T19:47:36.538Z,79.50
2018-05-08T19:50:02.883Z,78.30
2018-05-08T19:52:29.184Z,78.20
2018-05-08T19:54:55.356Z,78.40
2018-05-08T19:57:21.585Z,78.40
2018-05-08T19:59:47.756Z,78.50
2018-05-08T20:02:13.997Z,78.60
2018-05-08T20:04:40.212Z,78.70
2018-05-08T20:07:06.468Z,79.00
2018-05-08T20:09:34.241Z,80.10
2018-05-08T20:12:01.182Z,80.50
2018-05-08T20:14:28.084Z,80.30
2018-05-08T20:16:54.304Z,80.20
2018-05-08T20:19:20.530Z,80.10
2018-05-08T20:21:46.766Z,80.60
2018-05-08T20:24:12.964Z,80.40
2018-05-08T20:26:39.187Z,80.70
2018-05-08T20:29:05.467Z,80.70
2018-05-08T20:31:31.643Z,80.10
2018-05-08T20:33:58.638Z,80.90
2018-05-08T20:36:24.880Z,80.90
2018-05-08T20:38:51.118Z,80.60
2018-05-08T20:41:18.052Z,81.30
2018-05-08T20:43:44.263Z,81.20
2018-05-08T20:46:10.415Z,81.60
2018-05-08T20:48:37.354Z,81.20
2018-05-08T20:51:03.593Z,81.20
2018-05-08T20:53:30.572Z,82.10
2018-05-08T20:55:57.066Z,82.10
2018-05-08T20:58:24.277Z,82.80
2018-05-08T21:00:50.733Z,82.80
2018-05-08T21:03:17.016Z,83.60
2018-05-08T21:05:43.498Z,83.80
2018-05-08T21:08:09.999Z,84.40
2018-05-08T21:10:36.580Z,85.30
2018-05-08T21:13:03.023Z,85.80
2018-05-08T21:15:29.495Z,86.80
2018-05-08T21:17:55.955Z,86.90
2018-05-08T21:20:22.360Z,88.00
2018-05-08T21:22:48.803Z,88.50
2018-05-08T21:25:15.247Z,88.70
2018-05-08T21:27:47.469Z,88.70
2018-05-08T21:30:20.678Z,89.40
2018-05-08T21:32:46.941Z,89.30
2018-05-08T21:35:13.102Z,90.00
2018-05-08T21:37:39.281Z,91.40
2018-05-08T21:40:05.507Z,90.80
2018-05-08T21:42:31.714Z,91.10
2018-05-08T21:44:58.650Z,91.20
2018-05-08T21:47:25.603Z,91.50
2018-05-08T21:49:52.533Z,91.60
2018-05-08T21:52:19.546Z,91.80
2018-05-08T21:54:45.779Z,91.80
2018-05-08T21:57:11.979Z,91.90
2018-05-08T21:59:38.209Z,91.80
2018-05-08T22:02:04.438Z,92.10
2018-05-08T22:04:30.604Z,92.30
2018-05-08T22:06:56.797Z,92.70
2018-05-08T22:09:23.008Z,92.90
2018-05-08T22:11:49.980Z,93.00
2018-05-08T22:14:16.244Z,94.30
2018-05-08T22:16:42.457Z,95.30
2018-05-08T22:19:08.680Z,95.90
2018-05-08T22:21:34.845Z,96.30
2018-05-08T22:24:01.767Z,97.20
2018-05-08T22:26:27.951Z,97.20
2018-05-08T22:28:54.154Z,97.50
2018-05-08T22:31:21.075Z,97.80
2018-05-08T22:33:47.250Z,97.70
2018-05-08T22:36:13.486Z,98.00
2018-05-08T22:38:39.623Z,97.60
2018-05-08T22:41:05.833Z,97.50
2018-05-08T22:43:32.034Z,96.80
2018-05-08T22:45:58.289Z,96.20
2018-05-08T22:48:24.471Z,96.10
2018-05-08T22:50:51.422Z,94.60
2018-05-08T22:53:18.368Z,94.50
2018-05-08T22:55:45.319Z,94.10
2018-05-08T22:58:12.297Z,94.00
2018-05-08T23:00:38.456Z,94.00
2018-05-08T23:03:04.673Z,94.40
2018-05-08T23:05:30.867Z,94.10
2018-05-08T23:07:57.096Z,94.20
2018-05-08T23:10:23.289Z,94.40
2018-05-08T23:12:50.252Z,94.70
2018-05-08T23:15:16.434Z,94.70
2018-05-08T23:17:42.612Z,94.90
2018-05-08T23:20:09.495Z,95.00
2018-05-08T23:22:35.673Z,95.00
2018-05-08T23:25:02.574Z,95.10
2018-05-08T23:27:28.756Z,95.10
2018-05-08T23:29:54.997Z,95.10
2018-05-08T23:32:21.141Z,95.30
2018-05-08T23:34:47.334Z,95.30
2018-05-08T23:37:14.266Z,95.40
2018-05-08T23:39:41.234Z,95.40
2018-05-08T23:42:07.437Z,95.40
2018-05-08T23:44:34.374Z,95.60
2018-05-08T23:47:00.578Z,95.50
2018-05-08T23:49:26.788Z,96.00
2018-05-08T23:51:53.015Z,96.10
2018-05-08T23:54:19.202Z,96.20
2018-05-08T23:56:46.145Z,96.70
2018-05-08T23:59:13.120Z,97.00
